Terminal Aerodrome Forecast
Issued by NWS

Home | Current Version | Previous Version | Text Only | Print | Product List | Glossary On
Versions: 1 2 3 4 5 6 7 8 9 10 11 12 13 14 15 16 17 18
000
FTUS43 KICT 270548 CCA
TAFSLN
TAF COR
KSLN 270548Z 2706/2806 32012KT P6SM OVC015
     FM271000 34012KT P6SM SCT025
     FM271200 33010KT P6SM SKC
     FM280000 VRB05KT P6SM SKC=

USA.gov is the U.S. government's official web portal to all federal, state and local government web resources and services.